sensor_id;sensor_type;location;lat;lon;timestamp;P1;durP1;ratioP1;P2;durP2;ratioP2
35243;SDS011;37916;52.160;21.066;2023-08-01T00:06:13;4.32;;;2.55;;
35243;SDS011;37916;52.160;21.066;2023-08-01T00:16:15;4.75;;;2.70;;
35243;SDS011;37916;52.160;21.066;2023-08-01T00:26:18;4.28;;;2.78;;
35243;SDS011;37916;52.160;21.066;2023-08-01T00:36:19;9.63;;;2.78;;
35243;SDS011;37916;52.160;21.066;2023-08-01T00:46:20;4.95;;;2.47;;
35243;SDS011;37916;52.160;21.066;2023-08-01T00:56:21;6.60;;;2.92;;
35243;SDS011;37916;52.160;21.066;2023-08-01T01:06:24;4.13;;;2.70;;
35243;SDS011;37916;52.160;21.066;2023-08-01T01:16:26;4.78;;;2.35;;
35243;SDS011;37916;52.160;21.066;2023-08-01T01:26:27;5.55;;;3.03;;
35243;SDS011;37916;52.160;21.066;2023-08-01T01:36:28;5.05;;;2.92;;
35243;SDS011;37916;52.160;21.066;2023-08-01T01:46:29;4.20;;;2.50;;
35243;SDS011;37916;52.160;21.066;2023-08-01T01:56:30;7.32;;;3.00;;
35243;SDS011;37916;52.160;21.066;2023-08-01T02:06:31;5.65;;;3.22;;
35243;SDS011;37916;52.160;21.066;2023-08-01T02:16:32;4.95;;;2.58;;
35243;SDS011;37916;52.160;21.066;2023-08-01T02:26:33;6.90;;;3.15;;
35243;SDS011;37916;52.160;21.066;2023-08-01T02:36:34;4.05;;;2.58;;
35243;SDS011;37916;52.160;21.066;2023-08-01T02:46:35;6.75;;;2.88;;
35243;SDS011;37916;52.160;21.066;2023-08-01T02:56:36;6.00;;;2.90;;
35243;SDS011;37916;52.160;21.066;2023-08-01T03:06:41;5.28;;;2.90;;
35243;SDS011;37916;52.160;21.066;2023-08-01T03:16:42;4.45;;;2.55;;
35243;SDS011;37916;52.160;21.066;2023-08-01T03:26:43;4.90;;;2.55;;
35243;SDS011;37916;52.160;21.066;2023-08-01T03:36:44;5.03;;;3.30;;
35243;SDS011;37916;52.160;21.066;2023-08-01T03:46:45;5.55;;;2.95;;
35243;SDS011;37916;52.160;21.066;2023-08-01T03:56:47;5.53;;;2.90;;
35243;SDS011;37916;52.160;21.066;2023-08-01T04:06:48;6.03;;;3.00;;
35243;SDS011;37916;52.160;21.066;2023-08-01T04:16:49;5.80;;;2.78;;
35243;SDS011;37916;52.160;21.066;2023-08-01T04:26:50;4.90;;;2.90;;
35243;SDS011;37916;52.160;21.066;2023-08-01T04:36:55;6.03;;;3.00;;
35243;SDS011;37916;52.160;21.066;2023-08-01T04:46:56;4.88;;;2.88;;
35243;SDS011;37916;52.160;21.066;2023-08-01T05:07:07;5.88;;;2.20;;
35243;SDS011;37916;52.160;21.066;2023-08-01T05:17:11;4.22;;;2.10;;
35243;SDS011;37916;52.160;21.066;2023-08-01T05:27:12;7.35;;;2.40;;
35243;SDS011;37916;52.160;21.066;2023-08-01T05:37:15;5.15;;;2.15;;
35243;SDS011;37916;52.160;21.066;2023-08-01T05:47:20;5.28;;;2.45;;
35243;SDS011;37916;52.160;21.066;2023-08-01T05:57:23;4.30;;;2.10;;
35243;SDS011;37916;52.160;21.066;2023-08-01T06:07:25;6.70;;;2.13;;
35243;SDS011;37916;52.160;21.066;2023-08-01T06:17:29;4.13;;;1.97;;
35243;SDS011;37916;52.160;21.066;2023-08-01T06:27:38;11.80;;;2.38;;
35243;SDS011;37916;52.160;21.066;2023-08-01T06:37:43;7.72;;;1.80;;
35243;SDS011;37916;52.160;21.066;2023-08-01T06:48:07;5.78;;;1.85;;
35243;SDS011;37916;52.160;21.066;2023-08-01T06:58:23;4.05;;;1.90;;
35243;SDS011;37916;52.160;21.066;2023-08-01T07:08:32;4.32;;;2.25;;
35243;SDS011;37916;52.160;21.066;2023-08-01T07:18:35;3.80;;;2.35;;
35243;SDS011;37916;52.160;21.066;2023-08-01T07:28:40;4.17;;;2.30;;
35243;SDS011;37916;52.160;21.066;2023-08-01T07:38:46;5.72;;;2.20;;
35243;SDS011;37916;52.160;21.066;2023-08-01T07:49:04;5.55;;;2.53;;
35243;SDS011;37916;52.160;21.066;2023-08-01T07:59:38;3.95;;;2.00;;
35243;SDS011;37916;52.160;21.066;2023-08-01T08:09:39;4.53;;;2.20;;
35243;SDS011;37916;52.160;21.066;2023-08-01T08:19:40;5.57;;;2.50;;
35243;SDS011;37916;52.160;21.066;2023-08-01T08:29:41;6.30;;;2.00;;
35243;SDS011;37916;52.160;21.066;2023-08-01T08:39:42;3.40;;;2.10;;
35243;SDS011;37916;52.160;21.066;2023-08-01T08:49:44;6.30;;;2.83;;
35243;SDS011;37916;52.160;21.066;2023-08-01T08:59:46;3.42;;;1.98;;
35243;SDS011;37916;52.160;21.066;2023-08-01T09:09:48;5.63;;;2.20;;
35243;SDS011;37916;52.160;21.066;2023-08-01T09:19:54;10.13;;;2.27;;
35243;SDS011;37916;52.160;21.066;2023-08-01T09:30:04;6.68;;;2.28;;
35243;SDS011;37916;52.160;21.066;2023-08-01T09:40:11;6.80;;;2.00;;
35243;SDS011;37916;52.160;21.066;2023-08-01T09:50:19;5.00;;;1.83;;
35243;SDS011;37916;52.160;21.066;2023-08-01T10:00:20;8.55;;;2.08;;
35243;SDS011;37916;52.160;21.066;2023-08-01T10:10:21;6.03;;;1.95;;
35243;SDS011;37916;52.160;21.066;2023-08-01T10:20:22;4.18;;;1.83;;
35243;SDS011;37916;52.160;21.066;2023-08-01T10:30:27;4.05;;;2.05;;
35243;SDS011;37916;52.160;21.066;2023-08-01T10:40:38;8.13;;;2.80;;
35243;SDS011;37916;52.160;21.066;2023-08-01T10:50:40;4.47;;;2.47;;
35243;SDS011;37916;52.160;21.066;2023-08-01T11:00:42;6.43;;;2.97;;
35243;SDS011;37916;52.160;21.066;2023-08-01T11:10:48;12.13;;;3.20;;
35243;SDS011;37916;52.160;21.066;2023-08-01T11:20:50;11.90;;;3.25;;
35243;SDS011;37916;52.160;21.066;2023-08-01T11:30:51;9.15;;;3.67;;
35243;SDS011;37916;52.160;21.066;2023-08-01T11:40:52;9.93;;;3.58;;
35243;SDS011;37916;52.160;21.066;2023-08-01T11:50:57;6.53;;;2.78;;
35243;SDS011;37916;52.160;21.066;2023-08-01T12:01:02;5.35;;;2.50;;
35243;SDS011;37916;52.160;21.066;2023-08-01T12:11:04;6.03;;;2.47;;
35243;SDS011;37916;52.160;21.066;2023-08-01T12:21:05;4.95;;;2.25;;
35243;SDS011;37916;52.160;21.066;2023-08-01T12:31:06;11.15;;;3.22;;
35243;SDS011;37916;52.160;21.066;2023-08-01T12:41:07;4.55;;;2.42;;
35243;SDS011;37916;52.160;21.066;2023-08-01T12:51:08;3.80;;;2.10;;
35243;SDS011;37916;52.160;21.066;2023-08-01T13:01:09;18.05;;;3.28;;
35243;SDS011;37916;52.160;21.066;2023-08-01T13:11:13;4.35;;;2.28;;
35243;SDS011;37916;52.160;21.066;2023-08-01T13:21:14;3.03;;;2.08;;
35243;SDS011;37916;52.160;21.066;2023-08-01T13:31:24;4.78;;;2.58;;
35243;SDS011;37916;52.160;21.066;2023-08-01T13:41:25;4.72;;;2.55;;
35243;SDS011;37916;52.160;21.066;2023-08-01T13:51:26;7.18;;;2.78;;
35243;SDS011;37916;52.160;21.066;2023-08-01T14:52:21;4.78;;;2.85;;
35243;SDS011;37916;52.160;21.066;2023-08-01T15:02:22;7.38;;;4.28;;
35243;SDS011;37916;52.160;21.066;2023-08-01T15:12:23;6.20;;;4.30;;
35243;SDS011;37916;52.160;21.066;2023-08-01T15:22:32;6.85;;;3.80;;
35243;SDS011;37916;52.160;21.066;2023-08-01T15:32:33;6.85;;;4.55;;
35243;SDS011;37916;52.160;21.066;2023-08-01T15:42:34;6.72;;;4.43;;
35243;SDS011;37916;52.160;21.066;2023-08-01T15:52:35;8.18;;;4.53;;
35243;SDS011;37916;52.160;21.066;2023-08-01T16:02:36;4.22;;;3.20;;
35243;SDS011;37916;52.160;21.066;2023-08-01T16:12:37;5.72;;;3.00;;
35243;SDS011;37916;52.160;21.066;2023-08-01T16:22:38;4.72;;;2.72;;
35243;SDS011;37916;52.160;21.066;2023-08-01T16:32:39;4.03;;;2.58;;
35243;SDS011;37916;52.160;21.066;2023-08-01T16:42:40;5.97;;;2.85;;
35243;SDS011;37916;52.160;21.066;2023-08-01T16:52:41;5.05;;;2.47;;
35243;SDS011;37916;52.160;21.066;2023-08-01T17:02:42;3.40;;;2.45;;
35243;SDS011;37916;52.160;21.066;2023-08-01T17:12:43;4.93;;;2.78;;
35243;SDS011;37916;52.160;21.066;2023-08-01T17:22:45;2.83;;;2.50;;
35243;SDS011;37916;52.160;21.066;2023-08-01T17:32:46;3.60;;;2.60;;
35243;SDS011;37916;52.160;21.066;2023-08-01T17:42:48;5.50;;;2.90;;
35243;SDS011;37916;52.160;21.066;2023-08-01T17:52:51;5.57;;;2.97;;
35243;SDS011;37916;52.160;21.066;2023-08-01T18:02:53;3.60;;;2.80;;
35243;SDS011;37916;52.160;21.066;2023-08-01T18:12:54;3.80;;;2.45;;
35243;SDS011;37916;52.160;21.066;2023-08-01T18:22:55;4.55;;;3.10;;
35243;SDS011;37916;52.160;21.066;2023-08-01T18:32:56;4.88;;;2.70;;
35243;SDS011;37916;52.160;21.066;2023-08-01T18:42:57;3.95;;;2.80;;
35243;SDS011;37916;52.160;21.066;2023-08-01T18:52:59;4.57;;;2.90;;
35243;SDS011;37916;52.160;21.066;2023-08-01T19:03:00;5.45;;;2.85;;
35243;SDS011;37916;52.160;21.066;2023-08-01T19:13:04;3.50;;;2.40;;
35243;SDS011;37916;52.160;21.066;2023-08-01T19:23:05;3.70;;;2.50;;
35243;SDS011;37916;52.160;21.066;2023-08-01T19:53:53;5.70;;;2.75;;
35243;SDS011;37916;52.160;21.066;2023-08-01T20:03:54;5.38;;;3.08;;
35243;SDS011;37916;52.160;21.066;2023-08-01T20:13:55;5.75;;;2.80;;
35243;SDS011;37916;52.160;21.066;2023-08-01T20:23:56;5.88;;;2.83;;
35243;SDS011;37916;52.160;21.066;2023-08-01T20:33:57;5.70;;;3.17;;
35243;SDS011;37916;52.160;21.066;2023-08-01T20:43:58;5.20;;;3.30;;
35243;SDS011;37916;52.160;21.066;2023-08-01T20:53:59;4.70;;;3.28;;
35243;SDS011;37916;52.160;21.066;2023-08-01T21:04:00;4.70;;;3.05;;
35243;SDS011;37916;52.160;21.066;2023-08-01T21:14:01;4.00;;;3.30;;
35243;SDS011;37916;52.160;21.066;2023-08-01T21:24:02;5.15;;;3.35;;
35243;SDS011;37916;52.160;21.066;2023-08-01T21:34:03;5.35;;;3.65;;
35243;SDS011;37916;52.160;21.066;2023-08-01T21:44:04;5.22;;;3.60;;
35243;SDS011;37916;52.160;21.066;2023-08-01T21:54:05;5.95;;;3.60;;
35243;SDS011;37916;52.160;21.066;2023-08-01T22:04:08;6.37;;;3.87;;
35243;SDS011;37916;52.160;21.066;2023-08-01T22:14:09;6.43;;;4.25;;
35243;SDS011;37916;52.160;21.066;2023-08-01T22:24:10;6.93;;;3.58;;
35243;SDS011;37916;52.160;21.066;2023-08-01T22:34:11;6.32;;;4.30;;
35243;SDS011;37916;52.160;21.066;2023-08-01T22:44:12;5.90;;;4.25;;
35243;SDS011;37916;52.160;21.066;2023-08-01T22:54:13;5.28;;;3.92;;
35243;SDS011;37916;52.160;21.066;2023-08-01T23:04:14;6.03;;;3.55;;
35243;SDS011;37916;52.160;21.066;2023-08-01T23:14:15;5.75;;;3.17;;
35243;SDS011;37916;52.160;21.066;2023-08-01T23:24:17;4.85;;;3.50;;
35243;SDS011;37916;52.160;21.066;2023-08-01T23:34:18;6.78;;;3.92;;
35243;SDS011;37916;52.160;21.066;2023-08-01T23:44:20;4.32;;;3.75;;
35243;SDS011;37916;52.160;21.066;2023-08-01T23:54:21;4.95;;;3.50;;
